AirNav   Duncan Aviation - Near you to keep you flying
 
 459 users online  

8B1 Hawthorne-Feather Airpark
Hillsboro, New Hampshire, USA

GOING TO HILLSBORO?


FAA INFORMATION EFFECTIVE 03 NOVEMBER 2022

Location

FAA Identifier: 8B1
Lat/Long: 43-03-40.6000N 071-54-19.3000W
43-03.676667N 071-54.321667W
43.0612778,-71.9053611
(estimated)
Elevation: 600 ft. / 183 m (estimated)
Variation: 16W (1985)
From city: 3 miles S of HILLSBORO, NH
Time zone: UTC -5 (UTC -4 during Daylight Saving Time)
Zip code: 03244

Airport Operations

Airport use: Open to the public
Activation date: 02/1966
Control tower: no
ARTCC: BOSTON CENTER
FSS: BANGOR FLIGHT SERVICE STATION
NOTAMs facility: BGR (NOTAM-D service available)
Attendance: UNATNDD
Wind indicator: yes
Segmented circle: no
Lights: OTS INDEFLY.
Beacon: white-green (lighted land airport)
OTS INDEFLY.

Airport Communications

CTAF/UNICOM: 122.8
WX ASOS at AFN (16 nm S): 135.875 (603-532-6195)
WX AWOS-3PT at EEN (19 nm SW): 119.025 (603-358-6424)
WX ASOS at CON (20 nm NE): 132.325 (603-224-6558)

Nearby radio navigation aids

VOR radial/distance  VOR name  Freq  Var
CONr252/17.3CONCORD VOR/DME112.9015W
MHTr311/26.2MANCHESTER VOR/DME114.4015W
GDMr026/31.6GARDNER VOR/DME110.6014W

 
NDB name  Hdg/Dist  Freq  Var  ID
CLAREMONT148/27.523316WCNH -.-. -. ....

Airport Services

Fuel available: 100LL
100LL:SELF SVC FUEL AVBL 24 HRS WITH CREDIT CARD.
Parking: tiedowns
Airframe service: NONE
Powerplant service: NONE
Bottled oxygen: NONE
Bulk oxygen: NONE

Runway Information

Runway 2/20

Dimensions: 3260 x 75 ft. / 994 x 23 m
Surface: asphalt, in poor condition
RWY SFC UNEVEN WITH LRG OPEN CRACKS.
Weight bearing capacity: 
Single wheel: 8.0
Runway edge lights: medium intensity
MIRL RWY 02/20 OTS INDEFLY.
Runway edge markings: MARKINGS FADED.
RUNWAY 2  RUNWAY 20
Latitude: 43-03.407730N43-03.944378N
Longitude: 071-54.312915W071-54.329765W
Elevation: 593.0 ft.599.0 ft.
Traffic pattern: leftright
Runway heading: 015 magnetic, 359 true195 magnetic, 179 true
Markings: none, in poor conditionnone
Obstructions: 57 ft. trees, 297 ft. from runway, 108 ft. left of centerline, 1:1 slope to clear
50 FT GROVE OF TREES AT THR 65 FT L, 30 FT TREE 130 FT FM THR 85 FT R.
64 ft. trees, 343 ft. from runway, 132 ft. right of centerline, 2:1 slope to clear
+60 FT TREES AT THR 90 FT R.

Airport Ownership and Management from official FAA records

Ownership: Privately-owned
Owner: 8B1 LLC
144 STORY RD
NELSON, NH 03457
Phone 917-576-6075
Manager: CHRIS CHESNEY
144 STORY RD
NELSON, NH 03457
Phone 917-576-6075

Airport Operational Statistics

Aircraft based on the field: 16
Single engine airplanes: 15
Ultralights: 1
    
Aircraft operations: avg 72/week *
43% transient general aviation
43% local general aviation
15% military
* for 12-month period ending 31 December 2016

Additional Remarks

PRIOR TO USING ARPT CALL 603-588-6868 FOR ARPT CONDS.
WILDLIFE ON & INVOF ARPT.
FOR CD CTC BOSTON APCH AT 603-594-5552.

Instrument Procedures

There are no published instrument procedures at 8B1.

Some nearby airports with instrument procedures:

KAFN - Jaffrey Airfield Silver Ranch (16 nm S)
KEEN - Dillant/Hopkins Airport (19 nm SW)
KCON - Concord Municipal Airport (20 nm NE)
KMHT - Manchester Boston Regional Airport (22 nm E)
2B3 - Parlin Field Airport (23 nm NW)
 
Loc | Ops | Rwys | IFR | FBO | Links
Com | Nav | Svcs | Stats | Notes
Area around 8B1 (Hawthorne-Feather Airpark)
 
Road maps at: MapQuest Bing Google
 
Aerial photo
WARNING: Photo may not be current or correct
Aerial photo of 8B1 (Hawthorne-Feather Airpark)
Photo by David Jablonski
Photo taken 09-Apr-2006

Do you have a better or more recent aerial photo of Hawthorne-Feather Airpark that you would like to share? If so, please send us your photo.

 
Sectional chart

 
Airport distance calculator
Flying to Hawthorne-Feather Airpark? Find the distance to fly.

From to 8B1

Sunrise and sunset
Times for 30-Nov-2022
 Local
(UTC-5)
 Zulu
(UTC)
Morning civil twilight06:2811:28
Sunrise06:5911:59
Sunset16:1321:13
Evening civil twilight16:4521:45

Current date and time
Zulu (UTC)  30-Nov-2022 08:01:47
Local (UTC-5)  30-Nov-2022 03:01:47
 
METAR
KAFN 
16nm S 
300752Z AUTO 16004KT 10SM OVC023 02/M02 A3021 RMK AO2 SLP244 I1000 T00171022
KEEN 
19nm SW 
300756Z AUTO 00000KT OVC030 M04/M04 RMK AO2 SLPNO T10441044 PWINO FZRANO $
KCON 
20nm NE 
300751Z AUTO 03008KT 10SM OVC032 M01/M03 A3026 RMK AO2 SLP251 T10111028
KMHT 
22nm E 
300753Z 00000KT 10SM OVC032 00/M02 A3025 RMK AO2 SLP263 T00001022
KASH 
25nm SE 
300756Z AUTO 31003KT 10SM OVC031 M01/M01 A3027 RMK AO2 SLP258 T10111011
KFIT 
31nm S 
300752Z AUTO 00000KT 10SM OVC032 00/M03 A3026 RMK AO2 SLP251 T00001033
KVSF 
32nm NW 
300754Z AUTO 00000KT 10SM OVC033 M03/M04 A3023 RMK AO2 SLP244 T10331044
TAF
KCON 
20nm NE 
300529Z 3006/0106 VRB03KT P6SM OVC040 FM301000 00000KT P6SM BKN015 OVC020 FM301700 12004KT 2SM -SHRA BR OVC010 WS020/16030KT FM301900 16013G24KT 1 1/2SM -RA BR BKN015 OVC030 WS020/17030KT
KMHT 
22nm E 
300529Z 3006/0106 00000KT P6SM BKN026 BKN035 BKN250 FM301000 VRB03KT P6SM OVC020 FM301600 14008KT 5SM -SHRA BR OVC010 FM301900 17013G24KT 2SM -RA BR BKN015 OVC030 WS020/17030KT
NOTAMs
Click for the latest NOTAMs
NOTAMs are issued by the DoD/FAA and will open in a separate window not controlled by AirNav.

 

 
 

FBO, Fuel Providers, and Aircraft Ground Support

  
 Business Name 
 
 Contact 
 
 Services / Description 
 
Fuel Prices
 
Comments
  
8B1 LLC 917-576-6075
[email]
Aviation fuel

More info about 8B1 LLC
no prices available
 
   write
Update Fuel Prices
 

Would you like to see your business listed on this page?

 If your business provides an interesting product or service to pilots, flight crews, aircraft, or users of the Hawthorne-Feather Airpark, you should consider listing it here.  To start the listing process, click on the button below
 
Add a business
 

Other Pages about Hawthorne-Feather Airpark

Update a link
 
Copyright © AirNav, LLC. All rights reserved. Privacy Policy  Contact